Follow

RJOO 080600Z 22008KT 160V260 9999 FEW030 BKN/// 20/02 Q1012 RMK 1CU030 A2990

Sign in to participate in the conversation
hikoukidon

個人運用サーバです。 Private server.